Terminal Aerodrome Forecast
Issued by NWS Twin Cities, MN

Home | Current Version | Previous Version | Graphics & Text | Print | Product List | Glossary On
Versions: 1 2 3 4 5 6 7 8 9 10 11 12 13 14 15 16 17 18
193
FTUS43 KMPX 281252 AAA
TAFSTC
TAF AMD
KSTC 281252Z 2813/2912 05009KT P6SM VCSH SCT025 OVC040
      TEMPO 2813/2816 6SM -RA BR OVC040
     FM281700 05010G19KT P6SM VCSH OVC040
     FM290200 04004KT P6SM BKN040 OVC080
     FM290600 03002KT P6SM SCT040 BKN080=

USA.gov is the U.S. government's official web portal to all federal, state and local government web resources and services.